createdAt,value
2022-09-06T00:00:07.591Z,15.64
2022-09-06T00:05:14.788Z,15.56
2022-09-06T00:10:16.533Z,15.54
2022-09-06T00:15:18.356Z,15.50
2022-09-06T00:20:21.024Z,15.45
2022-09-06T00:25:22.596Z,15.39
2022-09-06T00:30:25.159Z,15.30
2022-09-06T00:35:27.656Z,15.23
2022-09-06T00:40:30.597Z,15.27
2022-09-06T00:45:33.334Z,15.40
2022-09-06T00:50:35.007Z,15.54
2022-09-06T00:55:36.635Z,15.72
2022-09-06T01:00:38.325Z,15.80
2022-09-06T01:06:09.948Z,15.88
2022-09-06T01:11:48.343Z,16.00
2022-09-06T01:17:15.218Z,16.24
2022-09-06T01:22:40.904Z,16.50
2022-09-06T01:28:04.148Z,16.45
2022-09-06T01:33:30.431Z,16.46
2022-09-06T01:38:32.038Z,16.55
2022-09-06T01:43:39.342Z,16.44
2022-09-06T01:49:19.264Z,16.38
2022-09-06T01:54:51.835Z,16.43
2022-09-06T02:00:11.828Z,16.41
2022-09-06T02:05:31.182Z,16.46
2022-09-06T02:10:54.968Z,16.51
2022-09-06T02:16:07.635Z,16.58
2022-09-06T02:21:13.068Z,16.59
2022-09-06T02:26:19.312Z,16.60
2022-09-06T02:31:27.746Z,16.56
2022-09-06T02:36:31.716Z,16.48
2022-09-06T02:41:34.038Z,16.45
2022-09-06T02:46:35.613Z,16.40
2022-09-06T02:51:40.529Z,16.30
2022-09-06T02:56:42.368Z,16.19
2022-09-06T03:01:44.148Z,16.17
2022-09-06T03:06:45.784Z,16.17
2022-09-06T03:11:47.326Z,16.13
2022-09-06T03:16:48.984Z,15.94
2022-09-06T03:21:50.616Z,16.00
2022-09-06T03:26:52.210Z,15.95
2022-09-06T03:31:53.781Z,15.99
2022-09-06T03:36:55.318Z,16.01
2022-09-06T03:41:56.893Z,16.01
2022-09-06T03:46:58.748Z,15.96
2022-09-06T03:52:00.347Z,15.96
2022-09-06T03:57:01.882Z,15.93
2022-09-06T04:02:03.881Z,15.86
2022-09-06T04:07:05.623Z,15.78
2022-09-06T04:12:07.421Z,15.74
2022-09-06T04:17:09.097Z,15.75
2022-09-06T04:22:10.643Z,15.66
2022-09-06T04:27:12.175Z,15.56
2022-09-06T04:32:13.902Z,15.63
2022-09-06T04:37:20.079Z,15.62
2022-09-06T04:42:21.638Z,15.56
2022-09-06T04:47:23.532Z,15.56
2022-09-06T04:52:29.964Z,15.60
2022-09-06T04:57:31.874Z,15.60
2022-09-06T05:02:33.584Z,15.59
2022-09-06T05:07:35.244Z,15.59
2022-09-06T05:12:38.837Z,15.65
2022-09-06T05:17:43.745Z,15.73
2022-09-06T05:22:52.520Z,15.71
2022-09-06T05:27:54.085Z,15.78
2022-09-06T05:32:55.644Z,15.86
2022-09-06T05:37:57.225Z,16.02
2022-09-06T05:42:59.017Z,16.15
2022-09-06T05:48:00.569Z,16.25
2022-09-06T05:53:02.315Z,16.42
2022-09-06T05:58:03.878Z,16.55
2022-09-06T06:03:05.451Z,16.61
2022-09-06T06:08:07.062Z,16.73
2022-09-06T06:13:11.375Z,16.94
2022-09-06T06:18:12.951Z,17.18
2022-09-06T06:23:15.408Z,17.44
2022-09-06T06:28:16.940Z,17.72
2022-09-06T06:33:18.548Z,18.01
2022-09-06T06:38:20.107Z,18.29
2022-09-06T06:43:21.678Z,18.60
2022-09-06T06:48:23.321Z,18.89
2022-09-06T06:53:28.409Z,19.12
2022-09-06T06:58:30.847Z,19.36
2022-09-06T07:03:32.429Z,19.68
2022-09-06T07:08:34.857Z,20.08
2022-09-06T07:13:36.862Z,20.63
2022-09-06T07:18:42.056Z,21.12
2022-09-06T07:34:22.655Z,22.41
2022-09-06T07:39:24.359Z,22.50
2022-09-06T07:44:26.534Z,22.83
2022-09-06T07:49:31.660Z,23.04
2022-09-06T07:54:35.695Z,23.25
2022-09-06T07:59:41.151Z,23.39
2022-09-06T08:04:47.554Z,23.50
2022-09-06T08:09:53.455Z,23.32
2022-09-06T08:14:59.685Z,22.99
2022-09-06T08:20:03.830Z,22.83
2022-09-06T08:25:06.032Z,22.66
2022-09-06T08:30:08.359Z,22.54
2022-09-06T08:35:10.458Z,22.33
2022-09-06T08:40:15.224Z,22.06
2022-09-06T08:45:23.247Z,21.99
2022-09-06T08:50:28.354Z,22.08
2022-09-06T08:55:39.350Z,22.39
2022-09-06T09:00:46.910Z,22.57
2022-09-06T09:05:52.651Z,22.63
2022-09-06T09:11:07.354Z,22.67
2022-09-06T09:16:08.997Z,22.82
2022-09-06T09:21:11.493Z,23.05
2022-09-06T09:26:15.352Z,23.40
2022-09-06T09:31:33.451Z,23.79
2022-09-06T09:36:35.743Z,24.18
2022-09-06T09:41:40.995Z,24.48
2022-09-06T09:46:42.681Z,24.92
2022-09-06T09:52:05.661Z,25.33
2022-09-06T09:57:11.909Z,25.60
2022-09-06T10:02:41.388Z,25.87
2022-09-06T10:07:47.324Z,26.01
2022-09-06T10:13:05.186Z,26.43
2022-09-06T10:18:16.880Z,26.51
2022-09-06T10:28:46.156Z,26.35
2022-09-06T10:33:50.763Z,26.10
2022-09-06T10:39:12.524Z,26.03
2022-09-06T10:44:38.648Z,26.09
2022-09-06T10:49:44.841Z,26.25
2022-09-06T10:54:47.399Z,26.37
2022-09-06T10:59:54.112Z,26.43
2022-09-06T11:12:12.591Z,26.50
2022-09-06T11:23:53.619Z,26.60
2022-09-06T11:28:59.236Z,26.69
2022-09-06T11:34:11.507Z,26.87
2022-09-06T11:39:14.939Z,27.08
2022-09-06T11:44:51.572Z,27.19
2022-09-06T11:49:53.198Z,27.25
2022-09-06T11:54:57.299Z,27.18
2022-09-06T12:07:11.765Z,27.19
2022-09-06T12:12:49.153Z,27.04
2022-09-06T12:18:54.499Z,27.02
2022-09-06T12:23:56.081Z,27.01
2022-09-06T12:28:58.232Z,26.77
2022-09-06T12:34:07.887Z,26.68
2022-09-06T12:39:14.398Z,26.69
2022-09-06T12:44:31.373Z,26.69
2022-09-06T12:49:33.654Z,26.76
2022-09-06T12:54:46.014Z,26.78
2022-09-06T13:00:04.044Z,26.89
2022-09-06T13:05:08.888Z,26.95
2022-09-06T13:10:15.047Z,27.08
2022-09-06T13:15:22.547Z,27.19
2022-09-06T13:20:28.666Z,27.29
2022-09-06T13:25:33.553Z,27.33
2022-09-06T13:30:49.519Z,27.28
2022-09-06T13:36:19.556Z,27.39
2022-09-06T13:41:41.231Z,27.63
2022-09-06T13:46:43.250Z,27.76
2022-09-06T13:51:44.859Z,27.87
2022-09-06T13:56:48.374Z,27.79
2022-09-06T14:01:56.977Z,27.74
2022-09-06T14:06:58.703Z,27.58
2022-09-06T14:12:00.954Z,27.56
2022-09-06T14:17:02.514Z,27.60
2022-09-06T14:22:05.605Z,27.65
2022-09-06T14:27:08.502Z,27.64
2022-09-06T14:32:10.094Z,27.65
2022-09-06T14:37:13.530Z,27.65
2022-09-06T14:42:15.321Z,27.68
2022-09-06T14:47:17.285Z,27.68
2022-09-06T14:52:18.959Z,27.76
2022-09-06T14:57:20.527Z,27.83
2022-09-06T15:02:22.249Z,27.86
2022-09-06T15:07:24.222Z,27.85
2022-09-06T15:12:25.943Z,27.83
2022-09-06T15:17:27.495Z,27.82
2022-09-06T15:22:29.059Z,27.81
2022-09-06T15:27:31.619Z,27.75
2022-09-06T15:32:33.599Z,27.65
2022-09-06T15:37:35.115Z,27.58
2022-09-06T15:42:36.866Z,27.52
2022-09-06T15:47:40.147Z,27.47
2022-09-06T15:52:41.717Z,27.45
2022-09-06T15:57:43.241Z,27.43
2022-09-06T16:02:44.920Z,27.36
2022-09-06T16:07:46.575Z,27.27
2022-09-06T16:12:50.590Z,27.18
2022-09-06T16:17:54.031Z,27.08
2022-09-06T16:22:55.566Z,26.97
2022-09-06T16:27:57.281Z,26.86
2022-09-06T16:32:59.247Z,26.80
2022-09-06T16:38:02.289Z,26.71
2022-09-06T16:43:04.042Z,26.57
2022-09-06T16:48:07.030Z,26.41
2022-09-06T16:53:08.554Z,26.25
2022-09-06T16:58:10.553Z,26.12
2022-09-06T17:03:14.931Z,26.01
2022-09-06T17:08:16.483Z,25.92
2022-09-06T17:13:18.031Z,25.83
2022-09-06T17:18:19.575Z,25.64
2022-09-06T17:23:27.306Z,25.47
2022-09-06T17:28:29.505Z,25.31
2022-09-06T17:33:32.086Z,25.10
2022-09-06T17:38:34.270Z,24.82
2022-09-06T17:43:36.822Z,24.43
2022-09-06T17:48:38.343Z,24.07
2022-09-06T17:53:41.253Z,23.76
2022-09-06T17:58:43.589Z,23.46
2022-09-06T18:03:51.277Z,23.15
2022-09-06T18:08:55.790Z,22.85
2022-09-06T18:20:26.781Z,22.13
2022-09-06T18:25:28.873Z,21.84
2022-09-06T18:30:30.411Z,21.61
2022-09-06T18:35:31.958Z,21.33
2022-09-06T18:40:33.506Z,21.08
2022-09-06T18:45:35.120Z,20.86
2022-09-06T18:50:38.898Z,20.65
2022-09-06T18:55:42.938Z,20.48
2022-09-06T19:00:44.495Z,20.28
2022-09-06T19:05:51.059Z,20.10
2022-09-06T19:11:18.932Z,19.87
2022-09-06T19:16:21.411Z,19.67
2022-09-06T19:21:27.844Z,19.53
2022-09-06T19:26:32.128Z,19.39
2022-09-06T19:31:39.294Z,19.26
2022-09-06T19:36:41.416Z,19.13
2022-09-06T19:41:45.098Z,19.02
2022-09-06T19:46:47.671Z,18.91
2022-09-06T19:51:50.782Z,18.77
2022-09-06T19:56:52.680Z,18.64
2022-09-06T20:01:54.329Z,18.55
2022-09-06T20:06:55.975Z,18.43
2022-09-06T20:11:57.571Z,18.34
2022-09-06T20:17:11.317Z,18.29
2022-09-06T20:22:20.937Z,18.30
2022-09-06T20:27:22.524Z,18.40
2022-09-06T20:32:24.065Z,18.36
2022-09-06T20:37:26.079Z,18.29
2022-09-06T20:42:27.619Z,18.18
2022-09-06T20:47:29.419Z,18.10
2022-09-06T20:52:31.288Z,18.05
2022-09-06T20:57:32.820Z,17.98
2022-09-06T21:02:34.371Z,17.92
2022-09-06T21:07:35.920Z,17.83
2022-09-06T21:12:37.476Z,17.75
2022-09-06T21:17:39.023Z,17.72
2022-09-06T21:22:40.563Z,17.65
2022-09-06T21:27:45.148Z,17.64
2022-09-06T21:32:46.700Z,17.63
2022-09-06T21:37:48.340Z,17.58
2022-09-06T21:42:49.871Z,17.49
2022-09-06T21:47:52.099Z,17.39
2022-09-06T21:52:53.875Z,17.31
2022-09-06T21:57:55.436Z,17.23
2022-09-06T22:02:57.176Z,17.18
2022-09-06T22:07:58.779Z,17.15
2022-09-06T22:13:00.340Z,17.14
2022-09-06T22:18:02.032Z,17.20
2022-09-06T22:23:08.511Z,17.20
2022-09-06T22:28:10.309Z,17.12
2022-09-06T22:33:11.868Z,17.08
2022-09-06T22:38:13.429Z,16.99
2022-09-06T22:43:15.555Z,16.90
2022-09-06T22:48:17.584Z,16.82
2022-09-06T22:53:20.861Z,16.78
2022-09-06T22:58:28.952Z,16.75
2022-09-06T23:03:30.637Z,16.76
2022-09-06T23:08:33.819Z,16.75
2022-09-06T23:13:35.445Z,16.70
2022-09-06T23:18:37.037Z,16.68
2022-09-06T23:23:39.601Z,16.67
2022-09-06T23:28:41.329Z,16.64
2022-09-06T23:33:43.668Z,16.58
2022-09-06T23:38:45.272Z,16.56
2022-09-06T23:43:46.994Z,16.61
2022-09-06T23:48:48.621Z,16.68
2022-09-06T23:53:50.223Z,16.71
2022-09-06T23:58:51.808Z,16.70
